Butts AAF (Fort Carson) Air Field
KFCS : now visible

Airfield :











YOU CAN JOIN US ON...

 
LOGIN :

Register | Disclaimer

   EN    FR    IT 

 









Legend :    VFR   Marginal VFR   IFR   Intensive IFR   Very Intensive IFR
Visi :
Ceiling :
>= 8 km
>= 3000ft
5 to 8 km
1000 to 3000 ft
1500m to 5 km
500 to 1000 ft
800 to 1500m
200 to 500 ft
< 800m
< 200 ft
Symbols :   Thunderstorms  Fog  Heavy snow  Heavy precipitations  Wind > 20 kt






- Airport Elevation : 5838 ft


KFCS - Butts AAF (Fort Carson) Air Field

CURRENT METAR :
  • 190758Z 35010KT 10SM SCT040 M04/M08 A3026 RMK AO2A SNE0658SNB0658E04 SLP302 P0000 T10361079 $

EXPIRED METARs :
  • 190704Z 36008KT 7SM BKN040 M03/M07 A3025 RMK AO2A SNE0658SNB0658E04 SLP293 $
  • 190658Z 35007KT 7SM -SN BKN040 M03/M07 A3025 RMK AO2A SNE0558SNB0558E08SNB08E21SNB21E28SNB54 SLP293 P0000 T10321068 400261033 $
  • 190643Z 35008KT 10SM BKN015 M03/M06 A3025 RMK AO2A SNE0558SNB0558E08SNB08E21SNB21E28 SLP293 $
  • 190613Z 01011KT 7SM -SN BKN015 M03/M08 A3024 RMK AO2A SNE0558UPB0558E08SNB08 SLP290 $
  • 190558Z 02009KT 5SM -SN BKN020 M03/M08 A3024 RMK AO2A SNB55 SLP290 P0000 60000 T10261077 11004 21026 52022 $
  • 190458Z AUTO 03014KT 10SM FEW024 SCT033 BKN042 M02/M08 A3022 RMK AO2 UPB00E01SNB01E02UPB02E12 SLP283 P0000 T10201083 $

TAF TAF KFCS
Valid from the 19 at 05:00 until the 20 at 11:00 UTC


190500Z 1905/2011 01009KT 9999 BKN040 620409 QNH3020INS
TEMPO 1906/1911 3200 -SN BKN020 620209
BECMG 1911/1912 VRB06KT 9999 SCT050 BKN100 QNH3030INS TX01/1920Z TNM10/2005Z
KZDV FIR / North America



MET'MAP, your aeronautical weather chart ! - Copyright ORBIFLY December 2007 - Disclaimer

ORBIFLY MET'MAP TEAM :

Programming & Development : Alexandra Zaïnal
Concept & original design : Baudouin d'Aumeries
Assistance for programming : Marc-Olivier Méhu
Technical & hardware support : Manuel Goepfert

Contact : metmap@orbifly.com




SOURCES & CREDITS :

   NOAA       Earth
Advisory